Time;durP1;ratioP1;P1;durP2;ratioP2;P2;SDS_P1;SDS_P2;PMS_P1;PMS_P2;Temp;Humidity;BMP_temperature;BMP_pressure;BME280_temperature;BME280_humidity;BME280_pressure;Samples;Min_cycle;Max_cycle;Signal;HPM_P1;HPM_P2
2022/05/28 00:01:55;;;;;;;7.57;2.53;;;12.90;94.00;;;;;;5031620;28;20030;-48
2022/05/28 00:04:20;;;;;;;6.25;2.13;;;12.90;94.10;;;;;;5032015;28;20405;-45
2022/05/28 00:06:46;;;;;;;12.15;1.88;;;12.80;94.20;;;;;;5034853;28;20120;-46
2022/05/28 00:09:12;;;;;;;14.75;2.10;;;12.70;94.40;;;;;;5035325;28;20022;-47
2022/05/28 00:11:43;;;;;;;6.10;2.03;;;12.60;94.30;;;;;;5035028;28;20021;-45
2022/05/28 00:14:10;;;;;;;9.50;1.67;;;12.60;94.60;;;;;;5034179;28;20021;-47
2022/05/28 00:16:36;;;;;;;4.93;1.38;;;12.60;94.60;;;;;;5035581;28;20022;-46
2022/05/28 00:19:03;;;;;;;9.10;2.58;;;12.50;94.90;;;;;;5035860;28;20033;-46
2022/05/28 00:21:29;;;;;;;7.20;2.08;;;12.40;95.30;;;;;;5033667;28;20026;-49
2022/05/28 00:23:54;;;;;;;5.28;1.90;;;12.30;95.30;;;;;;5034639;28;20021;-45
2022/05/28 00:26:20;;;;;;;10.00;2.10;;;12.30;95.50;;;;;;5034791;28;20034;-49
2022/05/28 00:28:46;;;;;;;10.00;2.95;;;12.20;95.60;;;;;;5034536;28;20033;-45
2022/05/28 00:31:13;;;;;;;5.72;1.52;;;12.20;95.60;;;;;;5034649;28;20022;-48
2022/05/28 00:33:38;;;;;;;9.82;3.03;;;12.20;94.80;;;;;;5034398;28;20018;-50
2022/05/28 00:36:08;;;;;;;7.72;2.10;;;12.20;94.10;;;;;;5034535;28;20033;-50
2022/05/28 00:38:33;;;;;;;8.55;1.80;;;12.20;94.00;;;;;;5034519;28;20022;-47
2022/05/28 00:41:00;;;;;;;9.98;1.98;;;12.30;93.90;;;;;;5034462;28;20048;-49
2022/05/28 00:43:27;;;;;;;16.02;1.90;;;12.30;93.60;;;;;;5034345;28;20105;-45
2022/05/28 00:45:59;;;;;;;7.60;1.63;;;12.30;93.60;;;;;;5034563;28;20079;-47
2022/05/28 00:48:31;;;;;;;6.07;2.08;;;12.40;93.60;;;;;;5033722;28;20374;-47
2022/05/28 00:51:06;;;;;;;5.90;1.63;;;12.40;93.50;;;;;;5034816;28;20032;-45
2022/05/28 00:53:33;;;;;;;14.53;2.50;;;12.40;93.50;;;;;;5034933;28;20034;-49
2022/05/28 00:56:00;;;;;;;8.10;2.03;;;12.40;93.50;;;;;;5034508;28;20112;-46
2022/05/28 00:58:26;;;;;;;8.10;1.85;;;12.40;94.30;;;;;;5034883;28;20025;-48
2022/05/28 01:00:51;;;;;;;6.63;1.63;;;12.40;95.10;;;;;;5034897;28;20075;-46
2022/05/28 01:03:20;;;;;;;11.38;1.70;;;12.30;93.60;;;;;;5034523;28;20090;-49
2022/05/28 01:06:02;;;;;;;6.70;1.73;;;12.20;94.00;;;;;;5034793;28;20041;-45
2022/05/28 01:08:40;;;;;;;5.32;2.10;;;12.20;94.00;;;;;;5034586;28;20032;-47
2022/05/28 01:11:21;;;;;;;8.40;2.08;;;12.20;94.60;;;;;;5034447;28;20045;-48
2022/05/28 01:13:54;;;;;;;7.80;1.80;;;12.20;94.00;;;;;;5034121;28;20029;-47
2022/05/28 01:16:31;;;;;;;8.02;1.83;;;12.20;94.00;;;;;;5034521;28;20028;-45
2022/05/28 01:19:11;;;;;;;7.40;1.70;;;12.20;94.50;;;;;;5034250;28;20037;-46
2022/05/28 01:21:47;;;;;;;6.78;1.60;;;12.20;94.90;;;;;;5034266;28;20057;-44
2022/05/28 01:24:50;;;;;;;5.05;1.42;;;12.20;95.40;;;;;;5034851;28;20030;-49
2022/05/28 01:27:22;;;;;;;6.85;1.80;;;12.10;95.50;;;;;;5020825;28;20045;-46
2022/05/28 01:29:52;;;;;;;5.85;2.63;;;12.10;95.50;;;;;;5033947;28;20040;-46
2022/05/28 01:32:19;;;;;;;4.82;1.50;;;12.10;95.70;;;;;;5034495;28;20037;-46
2022/05/28 01:34:46;;;;;;;7.45;1.63;;;12.00;95.80;;;;;;5034095;28;20101;-46
2022/05/28 01:37:13;;;;;;;7.30;2.20;;;12.00;95.50;;;;;;5033975;28;20481;-46
2022/05/28 01:39:41;;;;;;;8.15;1.40;;;11.90;94.80;;;;;;5034132;28;20032;-46
2022/05/28 01:42:09;;;;;;;6.18;1.92;;;11.80;95.90;;;;;;5033836;28;20049;-47
2022/05/28 01:44:38;;;;;;;6.80;1.50;;;11.80;95.60;;;;;;5033464;28;20374;-46
2022/05/28 01:47:04;;;;;;;5.70;1.98;;;11.80;96.30;;;;;;5035453;28;20108;-45
2022/05/28 01:49:30;;;;;;;10.57;2.20;;;11.80;96.30;;;;;;5034716;28;20064;-46
2022/05/28 01:51:59;;;;;;;7.65;1.45;;;11.80;96.30;;;;;;5034198;28;20040;-46
2022/05/28 01:54:29;;;;;;;6.05;1.90;;;11.70;96.20;;;;;;5034395;28;20457;-46
2022/05/28 01:56:55;;;;;;;4.60;1.52;;;11.70;96.30;;;;;;5033802;28;20397;-46
2022/05/28 01:59:27;;;;;;;8.60;1.80;;;11.80;96.10;;;;;;5034325;28;20428;-46
2022/05/28 02:01:55;;;;;;;7.65;2.17;;;11.70;95.90;;;;;;5032013;28;20489;-47
2022/05/28 02:04:20;;;;;;;3.25;1.33;;;11.70;96.00;;;;;;5033379;28;20044;-49
2022/05/28 02:06:46;;;;;;;5.18;1.45;;;11.70;95.90;;;;;;5033091;28;20509;-45
2022/05/28 02:09:15;;;;;;;6.28;1.58;;;11.70;95.80;;;;;;5033044;28;20025;-48
2022/05/28 02:11:52;;;;;;;8.00;1.95;;;11.70;95.70;;;;;;5033348;28;20494;-51
2022/05/28 02:14:51;;;;;;;7.43;1.83;;;11.70;96.00;;;;;;5033071;28;20017;-46
2022/05/28 02:17:56;;;;;;;7.95;1.70;;;11.70;97.10;;;;;;5021740;28;20686;-48
2022/05/28 02:20:35;;;;;;;6.90;1.48;;;11.50;96.90;;;;;;5032894;28;20029;-46
2022/05/28 02:23:05;;;;;;;8.27;2.35;;;11.50;96.10;;;;;;5032673;28;20026;-46
2022/05/28 02:25:48;;;;;;;8.13;1.92;;;11.40;95.80;;;;;;5033029;28;20025;-47
2022/05/28 02:28:15;;;;;;;4.93;1.70;;;11.40;95.70;;;;;;5030819;28;20028;-47
2022/05/28 02:30:53;;;;;;;8.02;1.80;;;11.40;95.80;;;;;;5032753;28;20032;-47
2022/05/28 02:33:20;;;;;;;8.77;1.60;;;11.40;96.00;;;;;;5032742;28;20021;-48
2022/05/28 02:35:46;;;;;;;9.18;1.67;;;11.40;95.80;;;;;;5033334;28;20029;-45
2022/05/28 02:38:13;;;;;;;8.95;2.53;;;11.50;96.10;;;;;;5032835;28;20440;-47
2022/05/28 02:40:38;;;;;;;9.00;1.65;;;11.50;96.30;;;;;;5032934;28;20025;-48
2022/05/28 02:43:04;;;;;;;24.63;2.70;;;11.50;96.00;;;;;;5032222;28;20444;-46
2022/05/28 02:45:30;;;;;;;10.32;2.05;;;11.40;96.10;;;;;;5032378;28;20440;-49
2022/05/28 02:47:56;;;;;;;8.60;1.70;;;11.50;96.10;;;;;;5032190;28;20029;-46
2022/05/28 02:50:22;;;;;;;11.52;2.53;;;11.40;96.50;;;;;;5032309;28;20104;-46
2022/05/28 02:52:48;;;;;;;6.45;1.55;;;11.30;97.90;;;;;;5032315;28;20025;-46
2022/05/28 02:55:13;;;;;;;8.73;1.65;;;11.30;97.90;;;;;;5031741;28;20037;-47
2022/05/28 02:57:39;;;;;;;7.20;1.60;;;11.20;97.00;;;;;;5032198;28;20026;-48
2022/05/28 03:00:07;;;;;;;7.82;1.65;;;11.10;96.80;;;;;;5032192;28;20141;-45
2022/05/28 03:02:32;;;;;;;7.22;2.00;;;11.10;96.80;;;;;;5032590;28;20028;-48
2022/05/28 03:04:58;;;;;;;3.83;1.58;;;11.00;97.20;;;;;;5032239;28;20030;-47
2022/05/28 03:07:24;;;;;;;5.50;2.22;;;11.00;97.00;;;;;;5032102;28;20026;-46
2022/05/28 03:09:49;;;;;;;13.20;2.05;;;11.00;96.90;;;;;;5032241;28;20091;-48
2022/05/28 03:12:15;;;;;;;10.05;1.65;;;10.90;97.90;;;;;;5032429;28;20468;-50
2022/05/28 03:14:40;;;;;;;6.90;1.90;;;10.90;97.30;;;;;;5032033;28;20025;-50
2022/05/28 03:17:06;;;;;;;12.43;1.95;;;10.80;97.80;;;;;;5032612;28;20033;-49
2022/05/28 03:19:31;;;;;;;5.93;1.83;;;10.60;97.90;;;;;;5032844;28;20105;-48
2022/05/28 03:21:57;;;;;;;9.25;1.48;;;10.50;98.80;;;;;;5032360;28;20025;-47
2022/05/28 03:24:22;;;;;;;10.35;1.77;;;10.40;98.40;;;;;;5032524;28;20508;-48
2022/05/28 03:26:48;;;;;;;6.32;1.60;;;10.40;97.70;;;;;;5032095;28;20040;-47
2022/05/28 03:29:13;;;;;;;11.55;2.20;;;10.40;98.10;;;;;;5032175;28;20707;-49
2022/05/28 03:31:39;;;;;;;7.35;2.05;;;10.30;98.00;;;;;;5032521;28;20075;-50
2022/05/28 03:34:04;;;;;;;11.23;2.72;;;10.30;98.20;;;;;;5032289;28;20017;-46
2022/05/28 03:36:30;;;;;;;3.45;1.27;;;10.30;98.20;;;;;;5032285;28;20082;-45
2022/05/28 03:38:56;;;;;;;7.15;1.92;;;10.30;98.10;;;;;;5032189;28;20029;-45
2022/05/28 03:41:22;;;;;;;4.18;1.20;;;10.30;98.10;;;;;;5035388;28;20029;-46
2022/05/28 03:43:48;;;;;;;5.35;1.27;;;10.30;98.20;;;;;;5035646;28;20021;-46
2022/05/28 03:46:24;;;;;;;5.60;1.65;;;10.40;98.10;;;;;;5035958;28;20515;-48
2022/05/28 03:48:50;;;;;;;9.27;1.55;;;10.40;98.30;;;;;;5035761;28;20040;-46
2022/05/28 03:51:15;;;;;;;4.07;1.60;;;10.50;98.20;;;;;;5036057;28;20030;-46
2022/05/28 03:53:41;;;;;;;4.40;1.48;;;10.50;98.20;;;;;;5035616;28;20030;-45
2022/05/28 03:56:07;;;;;;;6.95;1.63;;;10.50;98.90;;;;;;5035552;28;20044;-46
2022/05/28 03:58:32;;;;;;;11.68;2.25;;;10.60;98.20;;;;;;5034414;28;20028;-46
2022/05/28 04:00:58;;;;;;;6.32;1.70;;;10.60;98.40;;;;;;5037309;28;20030;-46
2022/05/28 04:03:23;;;;;;;7.13;1.67;;;10.70;98.20;;;;;;5035905;28;20053;-46
2022/05/28 04:05:49;;;;;;;9.82;2.20;;;10.70;98.20;;;;;;5035744;28;20399;-46
2022/05/28 04:08:14;;;;;;;5.10;1.60;;;10.70;98.20;;;;;;5038315;28;20108;-55
2022/05/28 04:10:40;;;;;;;11.52;2.25;;;10.70;98.40;;;;;;5036678;28;20018;-46
2022/05/28 04:13:05;;;;;;;12.20;2.33;;;10.70;98.20;;;;;;5035946;28;20025;-45
2022/05/28 04:15:32;;;;;;;11.07;1.60;;;10.80;98.10;;;;;;5035539;28;20030;-47
2022/05/28 04:17:58;;;;;;;6.47;1.98;;;10.80;98.50;;;;;;5035899;28;20034;-46
2022/05/28 04:20:24;;;;;;;7.20;2.00;;;10.90;98.20;;;;;;5036099;28;20022;-46
2022/05/28 04:22:50;;;;;;;8.10;1.73;;;10.90;98.10;;;;;;5036499;28;20026;-48
2022/05/28 04:25:16;;;;;;;3.45;1.60;;;11.00;98.30;;;;;;5035993;28;20060;-47
2022/05/28 04:27:42;;;;;;;6.30;2.03;;;11.00;98.40;;;;;;5051492;28;20524;-47
2022/05/28 04:30:08;;;;;;;6.15;1.80;;;11.00;98.40;;;;;;5035797;28;20052;-48
2022/05/28 04:32:34;;;;;;;2.85;1.40;;;11.10;98.20;;;;;;5035427;28;20022;-45
2022/05/28 04:34:59;;;;;;;7.32;1.60;;;11.10;98.30;;;;;;5035578;28;20025;-47
2022/05/28 04:37:25;;;;;;;7.32;1.67;;;11.00;98.50;;;;;;5043388;28;20032;-46
2022/05/28 04:39:50;;;;;;;7.25;2.15;;;11.20;98.40;;;;;;5053568;28;20075;-47
2022/05/28 04:42:16;;;;;;;6.75;1.83;;;11.30;98.40;;;;;;5035365;28;20120;-48
2022/05/28 04:44:41;;;;;;;9.68;1.65;;;11.60;98.00;;;;;;5040124;28;20021;-47
2022/05/28 04:47:07;;;;;;;9.75;1.85;;;11.80;97.90;;;;;;5050113;28;20079;-50
2022/05/28 04:49:33;;;;;;;7.47;1.55;;;12.50;96.60;;;;;;5045648;28;20025;-49
2022/05/28 04:51:58;;;;;;;6.05;1.38;;;12.60;96.50;;;;;;5034160;28;20026;-49
2022/05/28 04:54:24;;;;;;;5.43;1.58;;;13.20;95.80;;;;;;5050082;28;20031;-45
2022/05/28 04:56:49;;;;;;;6.63;2.08;;;13.90;94.40;;;;;;5054529;28;20040;-52
2022/05/28 04:59:15;;;;;;;7.45;1.73;;;14.30;94.10;;;;;;5053879;28;20103;-46
2022/05/28 05:01:40;;;;;;;7.07;2.72;;;15.00;92.90;;;;;;5053900;28;20029;-49
2022/05/28 05:04:06;;;;;;;5.75;1.52;;;15.10;92.20;;;;;;5054132;28;20108;-49
2022/05/28 05:06:31;;;;;;;5.90;1.52;;;14.80;92.70;;;;;;5046727;28;20104;-45
2022/05/28 05:08:57;;;;;;;8.73;2.20;;;14.90;93.10;;;;;;5034836;28;20026;-49
2022/05/28 05:11:22;;;;;;;5.35;1.88;;;15.40;92.30;;;;;;5033840;28;20022;-48
2022/05/28 05:13:48;;;;;;;6.40;1.63;;;16.30;91.50;;;;;;5033655;28;20041;-49
2022/05/28 05:16:15;;;;;;;5.45;1.63;;;17.10;90.20;;;;;;5037708;28;20041;-49
2022/05/28 05:18:41;;;;;;;5.40;1.65;;;17.70;88.70;;;;;;5053388;28;20028;-45
2022/05/28 05:21:08;;;;;;;4.13;1.48;;;18.00;87.20;;;;;;5053651;28;20107;-48
2022/05/28 05:23:33;;;;;;;7.72;2.15;;;18.50;86.00;;;;;;5053329;28;20519;-50
2022/05/28 05:25:59;;;;;;;8.35;2.28;;;19.30;83.70;;;;;;5052335;28;20082;-46
2022/05/28 05:28:25;;;;;;;3.92;1.35;;;19.60;82.60;;;;;;5053152;28;20017;-47
2022/05/28 05:30:50;;;;;;;4.50;1.55;;;19.70;82.90;;;;;;5053081;28;20017;-52
2022/05/28 05:33:16;;;;;;;4.88;1.92;;;19.90;82.10;;;;;;5088497;23;20059;-49
2022/05/28 05:35:42;;;;;;;7.53;1.98;;;19.90;81.50;;;;;;5053989;28;20028;-45
2022/05/28 05:38:10;;;;;;;7.47;2.35;;;19.30;82.40;;;;;;5060486;28;20043;-48
2022/05/28 05:40:37;;;;;;;8.25;1.92;;;18.30;84.60;;;;;;5054871;28;20036;-46
2022/05/28 05:43:04;;;;;;;5.70;1.65;;;17.60;87.00;;;;;;5067125;28;20035;-47
2022/05/28 05:45:30;;;;;;;7.97;2.50;;;16.90;89.50;;;;;;5064745;28;20074;-46
2022/05/28 05:47:56;;;;;;;9.60;2.55;;;16.20;91.00;;;;;;5051092;28;20508;-46
2022/05/28 05:50:22;;;;;;;6.57;1.85;;;15.50;92.20;;;;;;5052333;28;20029;-51
2022/05/28 05:52:48;;;;;;;4.97;2.20;;;15.10;93.20;;;;;;5052199;28;20183;-47
2022/05/28 05:55:14;;;;;;;4.18;1.40;;;15.10;93.90;;;;;;5051379;28;20036;-50
2022/05/28 05:57:39;;;;;;;3.10;1.52;;;16.00;93.40;;;;;;5051859;28;20037;-51
2022/05/28 06:00:05;;;;;;;4.07;1.85;;;17.00;91.20;;;;;;5052154;28;20052;-47
2022/05/28 06:02:31;;;;;;;5.40;1.92;;;17.20;90.20;;;;;;5052722;28;20040;-46
2022/05/28 06:04:58;;;;;;;7.18;1.50;;;16.80;90.50;;;;;;5055105;28;20028;-46
2022/05/28 06:07:24;;;;;;;4.88;2.47;;;16.20;91.00;;;;;;5068151;28;20035;-50
2022/05/28 06:09:49;;;;;;;4.28;1.65;;;16.50;91.80;;;;;;5059545;28;20104;-47
2022/05/28 06:12:15;;;;;;;7.97;2.15;;;17.70;90.60;;;;;;5057283;28;20117;-47
2022/05/28 06:14:40;;;;;;;11.90;2.80;;;19.20;86.00;;;;;;5050694;28;20639;-52
2022/05/28 06:17:06;;;;;;;6.80;1.50;;;20.50;83.20;;;;;;5054510;28;20029;-48
2022/05/28 06:19:32;;;;;;;5.95;1.77;;;21.50;80.20;;;;;;5052051;28;20024;-46
2022/05/28 06:21:59;;;;;;;4.78;1.88;;;22.20;78.20;;;;;;5063731;28;20044;-46
2022/05/28 06:24:24;;;;;;;6.15;1.90;;;23.20;74.70;;;;;;5051656;28;20029;-51
2022/05/28 06:26:50;;;;;;;3.03;1.63;;;23.50;72.00;;;;;;5055341;28;20549;-49
2022/05/28 06:29:15;;;;;;;7.13;2.20;;;23.60;71.70;;;;;;5071703;28;20104;-47
2022/05/28 06:31:41;;;;;;;5.90;1.85;;;23.90;70.10;;;;;;5071495;28;20455;-53
2022/05/28 06:34:06;;;;;;;8.55;2.20;;;23.90;70.40;;;;;;5070986;28;20031;-48
2022/05/28 06:36:32;;;;;;;5.75;2.17;;;24.00;69.30;;;;;;5071607;28;20438;-44
2022/05/28 06:38:57;;;;;;;5.72;1.27;;;24.30;68.20;;;;;;5052314;28;20033;-48
2022/05/28 06:41:23;;;;;;;7.07;2.28;;;24.20;67.60;;;;;;5052654;28;20086;-45
2022/05/28 06:43:50;;;;;;;6.25;1.63;;;24.20;68.20;;;;;;5051543;28;20033;-47
2022/05/28 06:46:16;;;;;;;7.78;2.08;;;24.80;66.70;;;;;;5051556;28;20052;-47
2022/05/28 06:48:41;;;;;;;5.05;1.83;;;25.30;65.40;;;;;;5051123;28;20050;-45
2022/05/28 06:51:07;;;;;;;7.45;1.73;;;25.00;65.20;;;;;;5051445;28;20610;-45
2022/05/28 06:53:36;;;;;;;5.35;2.20;;;25.30;66.00;;;;;;5051174;28;20052;-46
2022/05/28 06:56:02;;;;;;;8.18;2.10;;;25.70;64.50;;;;;;5061858;28;20531;-44
2022/05/28 06:58:28;;;;;;;6.03;1.80;;;26.40;74.90;;;;;;5071094;28;20063;-53
2022/05/28 07:00:53;;;;;;;8.05;2.25;;;26.30;64.00;;;;;;5054357;28;20056;-46
2022/05/28 07:03:24;;;;;;;10.70;2.25;;;26.40;63.90;;;;;;5051195;28;20491;-47
2022/05/28 07:05:49;;;;;;;7.03;1.73;;;26.60;61.40;;;;;;5057734;28;20380;-44
2022/05/28 07:08:15;;;;;;;8.18;1.77;;;26.50;60.90;;;;;;5051060;28;20029;-48
2022/05/28 07:10:49;;;;;;;7.30;1.98;;;26.60;61.50;;;;;;5051257;28;20029;-52
2022/05/28 07:13:15;;;;;;;7.13;1.87;;;26.00;62.50;;;;;;5051171;28;20032;-50
2022/05/28 07:15:41;;;;;;;7.78;3.00;;;26.30;62.00;;;;;;5054919;28;20024;-48
2022/05/28 07:18:07;;;;;;;4.05;1.52;;;25.50;61.90;;;;;;5054973;28;20070;-45
2022/05/28 07:20:33;;;;;;;5.47;1.42;;;24.20;63.60;;;;;;5055330;28;20036;-45
2022/05/28 07:22:58;;;;;;;8.95;2.00;;;23.20;66.50;;;;;;5055460;28;20029;-46
2022/05/28 07:25:24;;;;;;;6.35;1.63;;;22.50;67.70;;;;;;5054690;28;20504;-48
2022/05/28 07:27:50;;;;;;;6.18;1.73;;;21.60;68.80;;;;;;5055000;28;20056;-51
2022/05/28 07:30:15;;;;;;;10.00;2.00;;;20.80;73.60;;;;;;5055102;28;20104;-49
2022/05/28 07:32:41;;;;;;;7.40;2.25;;;20.10;72.90;;;;;;5054770;28;20029;-50
2022/05/28 07:35:07;;;;;;;6.63;2.03;;;19.80;74.00;;;;;;5056317;28;20036;-48
2022/05/28 07:37:33;;;;;;;4.35;1.40;;;19.70;74.60;;;;;;5058330;28;20561;-47
2022/05/28 07:39:59;;;;;;;9.32;1.95;;;19.90;74.80;;;;;;5055295;28;20032;-48
2022/05/28 07:42:26;;;;;;;7.25;2.17;;;19.70;74.90;;;;;;5074993;28;20384;-47
2022/05/28 07:44:51;;;;;;;6.13;1.55;;;19.50;76.00;;;;;;5074794;28;20131;-45
2022/05/28 07:47:18;;;;;;;6.10;1.70;;;19.00;76.40;;;;;;5074414;28;20103;-48
2022/05/28 07:49:44;;;;;;;8.60;1.40;;;18.40;78.60;;;;;;5063885;28;20400;-52
2022/05/28 07:52:10;;;;;;;9.65;2.08;;;18.00;79.50;;;;;;5054120;28;20013;-46
2022/05/28 07:54:35;;;;;;;5.78;1.70;;;17.60;80.60;;;;;;5065075;28;20025;-49
2022/05/28 07:57:01;;;;;;;8.10;2.50;;;17.40;81.40;;;;;;5068249;28;20033;-53
2022/05/28 07:59:26;;;;;;;11.77;2.00;;;18.20;82.50;;;;;;5055457;28;20040;-51
2022/05/28 08:01:52;;;;;;;6.05;1.63;;;18.50;79.60;;;;;;5065833;28;20029;-46
2022/05/28 08:04:17;;;;;;;4.80;2.85;;;18.30;80.10;;;;;;5054584;28;20047;-52
2022/05/28 08:06:43;;;;;;;7.40;1.98;;;18.10;80.40;;;;;;5065590;28;20036;-48
2022/05/28 08:09:11;;;;;;;6.78;1.77;;;17.90;81.40;;;;;;5061150;28;20488;-46
2022/05/28 08:11:37;;;;;;;6.35;1.98;;;17.70;82.50;;;;;;5072738;28;20032;-46
2022/05/28 08:14:03;;;;;;;8.07;1.90;;;17.90;82.60;;;;;;5058775;28;20519;-48
2022/05/28 08:16:29;;;;;;;4.20;1.85;;;17.90;82.60;;;;;;5053311;28;20032;-47
2022/05/28 08:18:55;;;;;;;7.22;1.88;;;17.80;82.40;;;;;;5051173;28;20404;-46
2022/05/28 08:24:05;;;;;;;6.50;1.45;;;17.30;82.70;;;;;;5054239;28;20043;-48
2022/05/28 08:26:31;;;;;;;7.38;1.60;;;17.40;82.00;;;;;;5053240;28;20029;-50
2022/05/28 08:28:57;;;;;;;6.97;1.00;;;17.50;79.80;;;;;;5062468;28;20041;-52
2022/05/28 08:31:24;;;;;;;7.13;1.25;;;17.60;79.10;;;;;;5055648;28;20025;-51
2022/05/28 08:33:50;;;;;;;3.60;1.20;;;17.60;78.80;;;;;;5065272;28;20035;-49
2022/05/28 08:36:17;;;;;;;3.10;1.20;;;18.10;77.90;;;;;;5054681;28;20025;-49
2022/05/28 08:38:43;;;;;;;7.60;1.40;;;18.50;77.80;;;;;;5053532;28;20084;-46
2022/05/28 08:41:12;;;;;;;6.00;1.50;;;18.60;77.80;;;;;;5054100;28;20047;-46
2022/05/28 08:43:58;;;;;;;6.90;1.45;;;18.70;77.20;;;;;;5053769;28;20549;-48
2022/05/28 08:46:26;;;;;;;4.57;1.02;;;18.80;75.90;;;;;;5053628;28;20061;-45
2022/05/28 08:48:54;;;;;;;7.80;1.67;;;18.80;77.10;;;;;;5053037;28;20029;-46
2022/05/28 08:51:29;;;;;;;5.13;0.98;;;19.20;76.50;;;;;;5053419;28;20082;-47
2022/05/28 08:54:26;;;;;;;4.93;1.27;;;19.60;74.60;;;;;;5053782;28;20028;-49
2022/05/28 08:56:56;;;;;;;7.13;1.92;;;19.60;75.60;;;;;;5053446;28;20083;-46
2022/05/28 08:59:25;;;;;;;4.18;1.65;;;19.10;75.10;;;;;;5053674;28;20523;-49
2022/05/28 09:01:51;;;;;;;4.45;1.63;;;18.80;76.70;;;;;;5053290;28;20082;-52
2022/05/28 09:04:29;;;;;;;4.25;1.00;;;18.20;77.60;;;;;;5053625;28;20061;-52
2022/05/28 09:06:56;;;;;;;4.53;1.45;;;17.90;79.10;;;;;;5052881;28;20057;-47
2022/05/28 09:09:36;;;;;;;3.85;1.25;;;17.60;80.60;;;;;;5053434;28;20044;-48
2022/05/28 09:12:05;;;;;;;7.10;1.40;;;17.30;80.70;;;;;;5053137;28;20025;-48
2022/05/28 09:14:36;;;;;;;2.55;1.17;;;17.10;80.50;;;;;;5053193;28;20021;-49
2022/05/28 09:17:24;;;;;;;2.60;1.10;;;17.10;81.80;;;;;;5051684;28;20025;-51
2022/05/28 09:19:52;;;;;;;3.85;1.10;;;17.30;82.10;;;;;;5052933;28;20488;-49
2022/05/28 09:22:18;;;;;;;5.45;1.40;;;17.90;81.60;;;;;;5053015;28;20044;-48
2022/05/28 09:24:44;;;;;;;5.65;1.23;;;18.10;79.80;;;;;;5053082;28;20036;-47
2022/05/28 09:27:34;;;;;;;3.03;0.85;;;18.50;78.60;;;;;;5052311;28;20025;-50
2022/05/28 09:30:03;;;;;;;7.25;1.65;;;19.00;77.40;;;;;;5052877;28;20021;-49
2022/05/28 09:32:40;;;;;;;7.55;1.52;;;19.40;77.50;;;;;;5055808;28;20029;-51
2022/05/28 09:35:29;;;;;;;6.65;1.20;;;19.50;76.80;;;;;;5055514;28;20108;-48
2022/05/28 09:38:05;;;;;;;4.18;1.45;;;19.60;76.70;;;;;;5036233;28;20083;-48
2022/05/28 09:40:34;;;;;;;3.88;1.33;;;19.50;76.80;;;;;;5052480;28;20613;-46
2022/05/28 09:43:34;;;;;;;6.38;1.30;;;19.60;77.00;;;;;;5050608;28;20028;-51
2022/05/28 09:46:32;;;;;;;5.00;1.50;;;19.60;76.30;;;;;;5039561;28;20045;-53
2022/05/28 09:48:59;;;;;;;6.63;1.55;;;19.80;74.60;;;;;;5051767;28;20029;-51
2022/05/28 09:51:27;;;;;;;3.22;1.25;;;19.70;74.00;;;;;;5052604;28;20017;-52
2022/05/28 09:54:20;;;;;;;3.33;1.02;;;19.80;72.90;;;;;;5057203;28;20094;-51
2022/05/28 09:57:10;;;;;;;8.85;1.38;;;19.40;72.80;;;;;;5072192;28;20099;-46
2022/05/28 09:59:46;;;;;;;4.63;1.13;;;19.30;73.80;;;;;;5072340;28;20029;-46
2022/05/28 10:02:19;;;;;;;12.73;7.53;;;19.30;73.70;;;;;;5072302;28;20027;-52
2022/05/28 10:05:03;;;;;;;4.53;1.23;;;19.40;76.00;;;;;;5072311;28;20547;-51
2022/05/28 10:07:34;;;;;;;2.85;1.80;;;19.50;76.30;;;;;;5071786;28;20037;-51
2022/05/28 10:10:01;;;;;;;4.75;1.58;;;19.60;74.80;;;;;;5055658;28;20406;-50
2022/05/28 10:12:31;;;;;;;3.67;1.40;;;19.40;74.90;;;;;;5051977;28;20032;-51
2022/05/28 10:15:17;;;;;;;7.15;1.25;;;19.10;75.60;;;;;;5059416;28;20037;-49
2022/05/28 10:17:55;;;;;;;5.70;1.60;;;19.00;76.60;;;;;;5060898;28;20040;-45
2022/05/28 10:20:21;;;;;;;3.72;1.23;;;18.40;77.90;;;;;;5071868;28;20063;-49
2022/05/28 10:22:49;;;;;;;7.72;1.60;;;18.00;79.00;;;;;;5064358;28;20066;-50
2022/05/28 10:25:30;;;;;;;4.63;1.67;;;17.70;81.00;;;;;;5051738;28;20033;-48
2022/05/28 10:27:57;;;;;;;2.55;1.17;;;17.40;81.40;;;;;;5051256;28;20025;-50
2022/05/28 10:30:30;;;;;;;3.53;1.00;;;17.20;81.20;;;;;;5051118;28;20020;-49
2022/05/28 10:32:56;;;;;;;3.28;1.10;;;17.20;82.90;;;;;;5069558;28;20488;-49
2022/05/28 10:35:28;;;;;;;5.28;1.02;;;17.30;83.10;;;;;;5071609;28;20115;-51
2022/05/28 10:38:13;;;;;;;4.80;1.52;;;17.60;81.40;;;;;;5071175;28;20052;-50
2022/05/28 10:40:48;;;;;;;2.97;0.95;;;17.90;81.30;;;;;;5063399;28;20082;-48
2022/05/28 10:43:28;;;;;;;3.50;1.33;;;18.20;79.30;;;;;;5051145;28;20103;-46
2022/05/28 10:46:15;;;;;;;3.47;1.30;;;18.40;78.70;;;;;;5051217;28;20064;-48
2022/05/28 10:48:51;;;;;;;6.13;1.77;;;18.50;77.20;;;;;;5050906;28;20551;-46
2022/05/28 10:52:11;;;;;;;3.63;1.30;;;18.70;78.50;;;;;;5051346;28;20100;-46
2022/05/28 10:55:08;;;;;;;4.25;1.02;;;18.80;77.60;;;;;;4970433;28;20026;-47
2022/05/28 10:57:46;;;;;;;2.35;1.20;;;18.80;77.00;;;;;;4973185;28;20031;-48
2022/05/28 11:00:19;;;;;;;3.97;1.23;;;18.70;76.10;;;;;;5040240;28;20040;-49
2022/05/28 11:03:12;;;;;;;3.33;1.20;;;18.40;77.50;;;;;;5051069;28;20029;-49
2022/05/28 11:06:03;;;;;;;3.72;1.48;;;18.20;76.80;;;;;;5051103;28;20037;-50
2022/05/28 11:09:01;;;;;;;8.77;1.20;;;18.20;77.60;;;;;;5054993;28;20021;-49
2022/05/28 11:11:51;;;;;;;3.75;1.42;;;18.40;77.10;;;;;;5050971;28;20033;-46
2022/05/28 11:14:48;;;;;;;8.52;1.80;;;18.50;74.20;;;;;;5051000;28;20033;-47
2022/05/28 11:17:31;;;;;;;5.07;2.42;;;18.60;72.20;;;;;;5050995;28;20021;-54
2022/05/28 11:20:26;;;;;;;32.28;20.38;;;18.70;72.60;;;;;;5051203;28;20492;-52
2022/05/28 11:23:14;;;;;;;4.05;1.73;;;19.10;72.40;;;;;;5051233;28;20036;-48
2022/05/28 11:26:10;;;;;;;4.63;1.30;;;19.30;72.60;;;;;;5050970;28;20021;-44
2022/05/28 11:29:06;;;;;;;3.35;1.15;;;19.50;72.30;;;;;;5051090;28;20032;-46
2022/05/28 11:31:48;;;;;;;3.17;1.25;;;19.50;71.10;;;;;;5062241;28;20412;-44
2022/05/28 11:34:25;;;;;;;3.13;1.35;;;19.30;71.70;;;;;;5074512;22;20037;-46
2022/05/28 11:37:06;;;;;;;2.75;1.10;;;19.10;72.50;;;;;;5050776;28;20100;-46
2022/05/28 11:39:41;;;;;;;2.88;0.90;;;19.00;73.10;;;;;;5031351;28;20030;-48
2022/05/28 11:42:25;;;;;;;1.25;0.82;;;18.40;74.00;;;;;;5031241;28;20026;-44
2022/05/28 11:44:56;;;;;;;3.67;1.48;;;18.10;72.30;;;;;;5031170;28;20507;-47
2022/05/28 11:47:24;;;;;;;5.47;0.98;;;17.90;71.50;;;;;;5031334;28;20059;-48
2022/05/28 11:53:07;;;;;;;3.53;1.30;;;18.00;73.10;;;;;;5031711;28;20025;-46
2022/05/28 11:55:37;;;;;;;1.80;0.98;;;18.40;73.80;;;;;;5031701;28;20029;-47
2022/05/28 11:58:15;;;;;;;2.13;0.90;;;18.60;70.50;;;;;;5030945;28;20116;-45
2022/05/28 12:00:41;;;;;;;2.38;1.05;;;18.80;69.80;;;;;;5031407;28;20025;-46
2022/05/28 12:03:23;;;;;;;3.95;1.23;;;18.70;70.90;;;;;;5034857;28;20120;-43
2022/05/28 12:06:02;;;;;;;2.92;0.90;;;18.80;71.20;;;;;;5033433;28;20033;-44
2022/05/28 12:09:00;;;;;;;3.10;1.00;;;18.60;70.80;;;;;;5034537;28;20097;-45
2022/05/28 12:11:40;;;;;;;3.22;0.80;;;18.60;71.00;;;;;;5033676;28;20369;-48
2022/05/28 12:14:22;;;;;;;1.75;0.90;;;18.70;68.80;;;;;;5034932;28;20017;-51
2022/05/28 12:17:09;;;;;;;5.75;1.20;;;18.80;67.80;;;;;;5034283;28;20497;-45
2022/05/28 12:19:43;;;;;;;1.38;0.93;;;18.90;67.70;;;;;;5034665;28;20451;-45
2022/05/28 12:22:21;;;;;;;5.22;1.00;;;19.10;68.20;;;;;;5034745;28;20033;-47
2022/05/28 12:25:07;;;;;;;4.35;2.05;;;19.30;69.60;;;;;;5034478;28;20017;-46
2022/05/28 12:27:56;;;;;;;1.88;0.80;;;19.40;68.10;;;;;;5020441;28;20034;-47
2022/05/28 12:30:46;;;;;;;2.20;1.08;;;19.40;67.40;;;;;;5009067;28;20044;-49
2022/05/28 12:33:27;;;;;;;6.60;1.10;;;19.00;66.90;;;;;;5014736;28;20450;-51
2022/05/28 12:36:06;;;;;;;4.15;1.00;;;18.60;68.50;;;;;;5014571;28;20524;-45
2022/05/28 12:38:56;;;;;;;3.30;0.98;;;18.50;69.90;;;;;;5016171;28;20449;-51
2022/05/28 12:41:26;;;;;;;2.30;0.82;;;18.60;68.50;;;;;;5014711;28;20037;-48
2022/05/28 12:44:02;;;;;;;4.30;1.17;;;18.60;68.80;;;;;;5014380;28;20026;-47
2022/05/28 12:46:43;;;;;;;1.90;0.80;;;18.70;68.10;;;;;;5014692;28;20022;-49
2022/05/28 12:49:23;;;;;;;2.28;0.95;;;18.80;67.90;;;;;;5014432;28;20497;-48
2022/05/28 12:52:28;;;;;;;1.65;1.10;;;18.80;67.70;;;;;;5013608;28;20580;-49
2022/05/28 12:55:12;;;;;;;1.50;0.90;;;18.90;70.00;;;;;;5014159;28;20026;-49
2022/05/28 12:57:39;;;;;;;2.25;0.93;;;19.00;69.00;;;;;;5013893;28;20568;-47
2022/05/28 13:00:25;;;;;;;3.65;1.35;;;19.10;68.60;;;;;;5014757;28;20060;-52
2022/05/28 13:02:52;;;;;;;2.15;0.90;;;19.10;67.60;;;;;;5016357;28;20409;-48
2022/05/28 13:05:31;;;;;;;6.32;1.45;;;18.90;66.20;;;;;;5015671;28;20028;-52
2022/05/28 13:08:03;;;;;;;1.95;0.68;;;18.70;66.50;;;;;;5016281;28;20030;-46
2022/05/28 13:10:29;;;;;;;8.10;1.23;;;18.70;68.20;;;;;;5033168;28;20261;-46
2022/05/28 13:13:23;;;;;;;2.45;1.15;;;18.90;67.20;;;;;;5032762;28;20022;-46